Time;durP1;ratioP1;P1;durP2;ratioP2;P2;SDS_P1;SDS_P2;PMS_P1;PMS_P2;Temp;Humidity;BMP_temperature;BMP_pressure;BME280_temperature;BME280_humidity;BME280_pressure;Samples;Min_cycle;Max_cycle;Signal;HPM_P1;HPM_P2
2022/09/19 00:01:39;;;;;;;1999.90;999.90;;;14.00;99.90;;;;;;5111737;28;20522;-77
2022/09/19 00:04:16;;;;;;;1999.90;999.90;;;14.70;99.90;;;;;;5110595;28;20496;-77
2022/09/19 00:06:44;;;;;;;1999.90;999.90;;;14.00;99.90;;;;;;5112279;28;20051;-77
2022/09/19 00:09:12;;;;;;;1999.90;999.90;;;14.90;99.90;;;;;;5094977;28;20050;-79
2022/09/19 00:11:40;;;;;;;1999.90;999.90;;;15.40;99.90;;;;;;5115554;28;20039;-80
2022/09/19 00:14:07;;;;;;;1999.90;999.90;;;14.60;99.90;;;;;;5098128;28;20059;-79
2022/09/19 00:16:41;;;;;;;1157.97;529.40;;;15.20;99.90;;;;;;5115936;28;20593;-79
2022/09/19 00:19:10;;;;;;;1999.90;999.90;;;14.90;99.90;;;;;;5115999;28;20055;-78
2022/09/19 00:21:42;;;;;;;1999.90;999.90;;;14.40;99.90;;;;;;5115793;28;20043;-79
2022/09/19 00:26:56;;;;;;;1116.43;524.15;;;14.70;99.90;;;;;;5097691;28;20051;-84
2022/09/19 00:29:23;;;;;;;1999.90;999.90;;;16.00;99.90;;;;;;5097379;28;20108;-77
2022/09/19 00:31:49;;;;;;;1999.90;999.90;;;14.90;99.90;;;;;;5115721;28;20046;-76
2022/09/19 00:34:17;;;;;;;1999.90;999.90;;;15.00;99.90;;;;;;5115629;28;20562;-76
2022/09/19 00:36:43;;;;;;;1999.90;999.90;;;14.20;99.90;;;;;;5115539;28;20453;-76
2022/09/19 00:39:11;;;;;;;1999.90;999.90;;;14.10;99.90;;;;;;5096699;28;20043;-76
2022/09/19 00:41:37;;;;;;;1999.90;999.90;;;15.20;99.90;;;;;;5097566;28;20055;-76
2022/09/19 00:44:23;;;;;;;1999.90;999.90;;;14.90;99.90;;;;;;5096973;28;20047;-78
2022/09/19 00:47:00;;;;;;;1999.90;999.90;;;14.70;99.90;;;;;;5115802;28;20047;-75
2022/09/19 00:49:28;;;;;;;1999.90;999.90;;;14.40;99.90;;;;;;5115406;28;20044;-75
2022/09/19 00:52:02;;;;;;;1999.90;999.90;;;14.20;99.90;;;;;;5097178;28;20168;-81
2022/09/19 00:54:41;;;;;;;1999.90;999.90;;;14.20;99.90;;;;;;5080997;28;20048;-75
2022/09/19 00:57:10;;;;;;;1999.90;999.90;;;14.10;99.90;;;;;;5097444;28;20528;-75
2022/09/19 00:59:39;;;;;;;1999.90;999.90;;;14.10;99.90;;;;;;5115524;28;20493;-76
2022/09/19 01:02:08;;;;;;;1999.90;999.90;;;14.20;99.90;;;;;;5115060;28;20043;-79
2022/09/19 01:04:35;;;;;;;1999.90;999.90;;;14.20;99.90;;;;;;5114724;28;20404;-76
2022/09/19 01:07:07;;;;;;;1999.90;999.90;;;15.00;99.90;;;;;;5114763;28;20097;-84
2022/09/19 01:09:48;;;;;;;1999.90;999.90;;;14.60;99.90;;;;;;5114820;28;20123;-76
2022/09/19 01:12:32;;;;;;;1999.90;999.90;;;14.80;99.90;;;;;;5096832;28;20048;-75
2022/09/19 01:15:09;;;;;;;1999.90;999.90;;;14.80;99.90;;;;;;5114174;28;20083;-76
2022/09/19 01:17:46;;;;;;;1999.90;999.90;;;15.00;99.90;;;;;;5114761;28;20134;-76
2022/09/19 01:20:32;;;;;;;1999.90;999.90;;;14.90;99.90;;;;;;5114026;28;20155;-76
2022/09/19 01:23:19;;;;;;;1999.90;999.90;;;14.00;99.90;;;;;;5114295;28;20140;-76
2022/09/19 01:26:39;;;;;;;1999.90;999.90;;;14.80;99.90;;;;;;5114641;28;20396;-76
2022/09/19 01:29:33;;;;;;;1999.90;999.90;;;14.50;99.90;;;;;;5031160;28;20140;-85
2022/09/19 01:32:01;;;;;;;1999.90;999.90;;;13.90;99.90;;;;;;5103039;28;20692;-76
2022/09/19 01:34:29;;;;;;;;;;;14.30;99.90;;;;;;5114320;28;20576;-76
2022/09/19 01:37:07;;;;;;;1999.90;999.90;;;13.90;99.90;;;;;;5096447;28;19974;-84
2022/09/19 01:39:38;;;;;;;702.38;136.07;;;14.80;99.90;;;;;;5095992;28;20043;-77
2022/09/19 01:42:04;;;;;;;1999.90;999.90;;;13.90;99.90;;;;;;5114492;28;20093;-79
2022/09/19 01:44:31;;;;;;;1999.90;999.90;;;14.50;99.90;;;;;;5114145;28;20050;-80
2022/09/19 01:47:36;;;;;;;1272.13;553.78;;;14.30;99.90;;;;;;5114325;28;20043;-76
2022/09/19 01:50:11;;;;;;;1999.90;999.90;;;14.00;99.90;;;;;;5096730;28;20047;-76
2022/09/19 01:52:48;;;;;;;1999.90;999.90;;;14.90;99.90;;;;;;5113228;28;20492;-76
2022/09/19 01:55:20;;;;;;;1999.90;999.90;;;15.10;99.90;;;;;;5114531;28;20048;-76
2022/09/19 01:58:17;;;;;;;1999.90;999.90;;;14.70;99.90;;;;;;5114246;28;20044;-76
2022/09/19 02:01:12;;;;;;;1999.90;999.90;;;15.00;99.90;;;;;;5113787;28;20047;-75
2022/09/19 02:03:54;;;;;;;1999.90;999.90;;;14.30;99.90;;;;;;5113680;28;20050;-76
2022/09/19 02:06:28;;;;;;;1999.90;999.90;;;14.00;99.90;;;;;;5114040;28;20051;-75
2022/09/19 02:09:14;;;;;;;1999.90;999.90;;;14.30;99.90;;;;;;5094620;28;20607;-76
2022/09/19 02:11:42;;;;;;;1999.90;999.90;;;14.20;99.90;;;;;;5079010;28;20043;-75
2022/09/19 02:14:16;;;;;;;1999.90;999.90;;;14.70;99.90;;;;;;5095821;28;20051;-75
2022/09/19 02:17:13;;;;;;;1999.90;999.90;;;15.10;99.90;;;;;;5113937;28;20539;-75
2022/09/19 02:19:41;;;;;;;1999.90;999.90;;;14.70;99.90;;;;;;5096798;28;20412;-76
2022/09/19 02:22:26;;;;;;;765.08;316.50;;;15.00;99.90;;;;;;5094720;28;20497;-79
2022/09/19 02:24:58;;;;;;;1999.90;999.90;;;14.30;99.90;;;;;;5114080;28;20477;-78
2022/09/19 02:27:29;;;;;;;1999.90;999.90;;;14.20;99.90;;;;;;5095335;28;20098;-86
2022/09/19 02:30:00;;;;;;;1999.90;999.90;;;14.20;99.90;;;;;;5113393;28;20082;-75
2022/09/19 02:32:26;;;;;;;1999.90;999.90;;;14.20;99.90;;;;;;5112186;28;20043;-76
2022/09/19 02:34:54;;;;;;;1999.90;999.90;;;15.00;99.90;;;;;;5078705;28;20047;-75
2022/09/19 02:37:30;;;;;;;1999.90;999.90;;;14.80;99.90;;;;;;5112370;28;20088;-76
2022/09/19 02:40:16;;;;;;;1999.90;999.90;;;14.30;99.90;;;;;;5096103;28;20132;-76
2022/09/19 02:43:03;;;;;;;1999.90;999.90;;;14.00;99.90;;;;;;5098474;28;20055;-75
2022/09/19 02:45:45;;;;;;;1999.90;999.90;;;14.20;99.90;;;;;;5113248;28;20433;-76
2022/09/19 02:48:37;;;;;;;1999.90;999.90;;;14.70;99.90;;;;;;5113261;28;20043;-76
2022/09/19 02:51:15;;;;;;;1999.90;999.90;;;14.20;99.90;;;;;;5112476;28;20069;-76
2022/09/19 02:53:45;;;;;;;1999.90;999.90;;;13.90;99.90;;;;;;5112645;28;20066;-77
2022/09/19 02:56:14;;;;;;;1999.90;999.90;;;14.90;99.90;;;;;;5112862;28;20044;-79
2022/09/19 02:58:47;;;;;;;1999.90;999.90;;;14.80;99.90;;;;;;5094782;28;20079;-76
2022/09/19 03:01:19;;;;;;;1999.90;999.90;;;14.10;99.90;;;;;;5094811;28;20102;-76
2022/09/19 03:06:39;;;;;;;1999.90;999.90;;;15.10;99.90;;;;;;5112745;28;20058;-76
2022/09/19 03:09:08;;;;;;;1999.90;999.90;;;15.10;99.90;;;;;;5112358;28;20051;-76
2022/09/19 03:11:38;;;;;;;1999.90;999.90;;;14.10;99.90;;;;;;5111979;28;20049;-76
2022/09/19 03:14:05;;;;;;;1999.90;999.90;;;14.20;99.90;;;;;;5112497;28;20557;-76
2022/09/19 03:16:35;;;;;;;1999.90;999.90;;;14.10;99.90;;;;;;5077472;28;20047;-81
2022/09/19 03:19:05;;;;;;;1999.90;999.90;;;14.10;99.90;;;;;;5112533;28;20089;-77
2022/09/19 03:21:31;;;;;;;1999.90;999.90;;;14.30;99.90;;;;;;5093745;28;20513;-76
2022/09/19 03:23:58;;;;;;;1999.90;999.90;;;14.70;99.90;;;;;;5112113;28;20583;-77
2022/09/19 03:26:30;;;;;;;1999.90;999.90;;;14.20;99.90;;;;;;5112309;28;20149;-77
2022/09/19 03:29:01;;;;;;;1999.90;999.90;;;15.00;99.90;;;;;;5093747;28;20052;-82
2022/09/19 03:31:27;;;;;;;1999.90;999.90;;;14.30;99.90;;;;;;5094493;28;20476;-76
2022/09/19 03:33:55;;;;;;;1999.90;999.90;;;15.20;99.90;;;;;;5112221;28;20058;-76
2022/09/19 03:36:22;;;;;;;1999.90;999.90;;;15.20;99.90;;;;;;5112408;28;20047;-87
2022/09/19 03:38:48;;;;;;;511.08;110.70;;;14.70;99.90;;;;;;5111331;28;20052;-76
2022/09/19 03:41:17;;;;;;;1999.90;999.90;;;14.60;99.90;;;;;;5112877;28;20644;-76
2022/09/19 03:43:43;;;;;;;1999.90;999.90;;;14.30;99.90;;;;;;5110880;28;20487;-76
2022/09/19 03:46:17;;;;;;;1999.90;999.90;;;14.50;99.90;;;;;;5112373;28;20492;-76
2022/09/19 03:48:44;;;;;;;1999.90;999.90;;;15.10;99.90;;;;;;5112070;28;20571;-77
2022/09/19 03:51:11;;;;;;;1999.90;999.90;;;14.90;99.90;;;;;;5112567;28;20048;-76
2022/09/19 03:53:37;;;;;;;1999.90;999.90;;;14.10;99.90;;;;;;5093135;28;20171;-77
2022/09/19 03:56:03;;;;;;;1999.90;999.90;;;15.40;99.90;;;;;;5094208;28;20506;-76
2022/09/19 03:58:30;;;;;;;1999.90;999.90;;;14.20;99.90;;;;;;5111663;28;20105;-78
2022/09/19 04:00:59;;;;;;;1999.90;999.90;;;15.00;99.90;;;;;;5112624;28;20044;-76
2022/09/19 04:03:24;;;;;;;1999.90;999.90;;;14.20;99.90;;;;;;5110382;28;20044;-80
2022/09/19 04:05:51;;;;;;;1999.90;999.90;;;14.80;99.90;;;;;;5093201;28;20069;-76
2022/09/19 04:08:18;;;;;;;1999.90;999.90;;;15.20;99.90;;;;;;5111844;28;20089;-78
2022/09/19 04:10:44;;;;;;;1999.90;999.90;;;14.80;99.90;;;;;;5111678;28;20039;-78
2022/09/19 04:13:13;;;;;;;1999.90;999.90;;;14.70;99.90;;;;;;5094056;28;20396;-78
2022/09/19 04:15:40;;;;;;;1999.90;999.90;;;15.10;99.90;;;;;;5093753;28;20052;-79
2022/09/19 04:18:06;;;;;;;1999.90;999.90;;;14.60;99.90;;;;;;5111432;28;20132;-84
2022/09/19 04:20:33;;;;;;;1999.90;999.90;;;14.30;99.90;;;;;;5111687;28;20075;-79
2022/09/19 04:23:00;;;;;;;1999.90;999.90;;;15.50;99.90;;;;;;5111580;28;20202;-78
2022/09/19 04:25:35;;;;;;;1999.90;999.90;;;15.30;99.90;;;;;;5111866;28;20047;-77
2022/09/19 04:28:06;;;;;;;1999.90;999.90;;;14.50;99.90;;;;;;5112097;28;20051;-78
2022/09/19 04:30:34;;;;;;;1999.90;999.90;;;14.40;99.90;;;;;;5112328;28;20040;-77
2022/09/19 04:33:03;;;;;;;1999.90;999.90;;;14.40;99.90;;;;;;5110426;28;20531;-76
2022/09/19 04:35:34;;;;;;;1999.90;999.90;;;15.20;99.90;;;;;;5110837;28;20120;-75
2022/09/19 04:38:01;;;;;;;1999.90;999.90;;;15.20;99.90;;;;;;5110883;28;20101;-78
2022/09/19 04:40:28;;;;;;;1999.90;999.90;;;14.60;99.90;;;;;;5094102;28;20059;-74
2022/09/19 04:42:55;;;;;;;1999.90;999.90;;;15.20;99.90;;;;;;5112717;28;20087;-75
2022/09/19 04:45:20;;;;;;;1999.90;999.90;;;14.70;99.90;;;;;;5111857;28;20163;-77
2022/09/19 04:47:49;;;;;;;1999.90;999.90;;;14.30;99.90;;;;;;5110625;28;20108;-76
2022/09/19 04:50:17;;;;;;;1999.90;999.90;;;14.30;99.90;;;;;;5112334;28;20035;-75
2022/09/19 04:52:43;;;;;;;;;;;15.30;99.90;;;;;;5112215;28;20375;-78
2022/09/19 04:55:09;;;;;;;1999.90;999.90;;;14.80;99.90;;;;;;5113459;28;20016;-76
2022/09/19 04:57:35;;;;;;;1999.90;999.90;;;15.00;99.90;;;;;;5115754;28;20075;-75
2022/09/19 05:00:02;;;;;;;1999.90;999.90;;;14.40;99.90;;;;;;5114319;28;20086;-75
2022/09/19 05:02:31;;;;;;;1999.90;999.90;;;14.60;99.90;;;;;;5113500;28;20074;-87
2022/09/19 05:04:57;;;;;;;1999.90;999.90;;;14.70;99.90;;;;;;5115582;28;20047;-75
2022/09/19 05:07:33;;;;;;;1999.90;999.90;;;14.80;99.90;;;;;;5115517;28;20122;-75
2022/09/19 05:10:02;;;;;;;1999.90;999.90;;;14.40;99.90;;;;;;5116020;28;20039;-75
2022/09/19 05:12:28;;;;;;;1999.90;999.90;;;15.50;99.90;;;;;;5115579;28;20480;-77
2022/09/19 05:14:55;;;;;;;1999.90;999.90;;;15.40;99.90;;;;;;5114383;28;20123;-76
2022/09/19 05:17:22;;;;;;;1999.90;999.90;;;15.70;99.90;;;;;;5114239;28;20496;-77
2022/09/19 05:19:47;;;;;;;1999.90;999.90;;;14.80;99.90;;;;;;5114360;28;20103;-77
2022/09/19 05:22:14;;;;;;;1999.90;999.90;;;15.10;99.90;;;;;;5113401;28;20077;-83
2022/09/19 05:24:40;;;;;;;1999.90;999.90;;;15.30;99.90;;;;;;5096237;28;20079;-83
2022/09/19 05:27:06;;;;;;;1999.90;999.90;;;14.60;99.90;;;;;;5115225;28;20044;-77
2022/09/19 05:29:36;;;;;;;1999.90;999.90;;;14.90;99.90;;;;;;5114739;28;20039;-83
2022/09/19 05:32:04;;;;;;;1999.90;999.90;;;14.30;99.90;;;;;;5114875;28;20040;-77
2022/09/19 05:34:29;;;;;;;1999.90;999.90;;;15.30;99.90;;;;;;5115709;28;20093;-77
2022/09/19 05:36:56;;;;;;;1999.90;999.90;;;15.30;99.90;;;;;;5114352;28;20043;-79
2022/09/19 05:39:21;;;;;;;1999.90;999.90;;;14.30;99.90;;;;;;5114531;28;20082;-78
2022/09/19 05:41:47;;;;;;;1999.90;999.90;;;14.40;99.90;;;;;;5114772;28;20078;-77
2022/09/19 05:44:16;;;;;;;1999.90;999.90;;;14.30;99.90;;;;;;5114520;28;20046;-76
2022/09/19 05:46:42;;;;;;;1999.90;999.90;;;15.30;99.90;;;;;;5096180;28;20047;-78
2022/09/19 05:49:09;;;;;;;1999.90;999.90;;;14.90;99.90;;;;;;5114727;28;20043;-76
2022/09/19 05:51:35;;;;;;;1999.90;999.90;;;15.10;99.90;;;;;;5112998;28;20039;-82
2022/09/19 05:54:01;;;;;;;1999.90;999.90;;;14.40;99.90;;;;;;5114049;28;20047;-77
2022/09/19 05:56:26;;;;;;;1999.90;999.90;;;14.70;99.90;;;;;;5114144;28;20043;-77
2022/09/19 05:58:54;;;;;;;1999.90;999.90;;;15.10;99.90;;;;;;5114328;28;20055;-76
2022/09/19 06:01:20;;;;;;;1999.90;999.90;;;15.10;99.90;;;;;;5114727;28;20112;-77
2022/09/19 06:03:45;;;;;;;1999.90;999.90;;;14.80;99.90;;;;;;5114502;28;20044;-76
2022/09/19 06:06:14;;;;;;;1999.90;999.90;;;14.30;99.90;;;;;;5114202;28;20087;-76
2022/09/19 06:08:42;;;;;;;1999.90;999.90;;;14.70;99.90;;;;;;5114098;28;20087;-77
2022/09/19 06:11:08;;;;;;;1999.90;999.90;;;15.20;99.90;;;;;;5115006;28;20052;-77
2022/09/19 06:16:19;;;;;;;1999.90;999.90;;;14.80;99.90;;;;;;5095776;28;20502;-77
2022/09/19 06:18:45;;;;;;;1999.90;999.90;;;14.70;99.90;;;;;;5113581;28;20126;-79
2022/09/19 06:21:12;;;;;;;1999.90;999.90;;;14.80;99.90;;;;;;5113256;28;20181;-79
2022/09/19 06:23:39;;;;;;;1999.90;999.90;;;15.40;99.90;;;;;;5095796;28;20485;-87
2022/09/19 06:26:04;;;;;;;1999.90;999.90;;;15.00;99.90;;;;;;5114348;28;20108;-78
2022/09/19 06:28:30;;;;;;;1999.90;999.90;;;15.60;99.90;;;;;;5114640;28;20039;-78
2022/09/19 06:31:03;;;;;;;1999.90;999.90;;;15.70;99.90;;;;;;5095453;28;20490;-78
2022/09/19 06:33:30;;;;;;;1999.90;999.90;;;15.30;99.90;;;;;;5114105;28;20052;-77
2022/09/19 06:35:57;;;;;;;1999.90;999.90;;;14.70;99.90;;;;;;5095960;28;20126;-77
2022/09/19 06:38:23;;;;;;;1999.90;999.90;;;14.70;99.90;;;;;;5113321;28;20051;-77
2022/09/19 06:40:49;;;;;;;1999.90;999.90;;;14.80;99.90;;;;;;5113893;28;20039;-77
2022/09/19 06:43:15;;;;;;;1999.90;999.90;;;15.50;99.90;;;;;;5113813;28;20449;-76
2022/09/19 06:45:40;;;;;;;1999.90;999.90;;;15.00;99.90;;;;;;5113594;28;20542;-87
2022/09/19 06:48:08;;;;;;;1999.90;999.90;;;15.80;99.90;;;;;;5113890;28;20075;-77
2022/09/19 06:50:35;;;;;;;;;;;15.70;99.90;;;;;;5114454;28;20054;-77
2022/09/19 06:53:01;;;;;;;1999.90;999.90;;;16.10;99.90;;;;;;5113082;28;19920;-77
2022/09/19 06:55:28;;;;;;;1999.90;999.90;;;15.80;99.90;;;;;;5113852;28;20053;-76
2022/09/19 06:58:04;;;;;;;1561.22;765.35;;;16.30;99.90;;;;;;5113186;28;20085;-76
2022/09/19 07:00:35;;;;;;;1999.90;999.90;;;15.20;99.90;;;;;;5113695;28;20046;-76
2022/09/19 07:03:09;;;;;;;1999.90;999.90;;;15.20;99.90;;;;;;5113445;28;20059;-76
2022/09/19 07:05:38;;;;;;;1999.90;999.90;;;15.20;99.90;;;;;;5113435;28;20044;-77
2022/09/19 07:08:04;;;;;;;1999.90;999.90;;;15.50;99.90;;;;;;5094851;28;20058;-76
2022/09/19 07:10:30;;;;;;;1999.90;999.90;;;16.00;99.90;;;;;;5113485;28;20044;-78
2022/09/19 07:12:59;;;;;;;1999.90;999.90;;;15.70;99.90;;;;;;5112469;28;20133;-76
2022/09/19 07:15:24;;;;;;;1999.90;999.90;;;15.60;99.90;;;;;;5113857;28;20105;-76
2022/09/19 07:17:53;;;;;;;1999.90;999.90;;;15.40;99.90;;;;;;5112351;28;20059;-76
2022/09/19 07:20:19;;;;;;;1999.90;999.90;;;15.20;99.90;;;;;;5113154;28;20044;-76
2022/09/19 07:22:45;;;;;;;1999.90;999.90;;;15.40;99.90;;;;;;5111184;28;20047;-80
2022/09/19 07:25:10;;;;;;;1999.90;999.90;;;16.50;99.90;;;;;;5094378;28;20044;-77
2022/09/19 07:27:36;;;;;;;1999.90;999.90;;;15.60;99.90;;;;;;5112389;28;20052;-77
2022/09/19 07:30:04;;;;;;;1999.90;999.90;;;15.90;99.90;;;;;;5094693;28;20047;-77
2022/09/19 07:32:30;;;;;;;1999.90;999.90;;;16.90;99.90;;;;;;5113368;28;20126;-76
2022/09/19 07:34:56;;;;;;;1999.90;999.90;;;16.10;99.90;;;;;;5094684;28;20131;-76
2022/09/19 07:37:22;;;;;;;1999.90;999.90;;;16.50;99.90;;;;;;5094598;28;20052;-77
2022/09/19 07:39:48;;;;;;;1999.90;999.90;;;16.80;99.90;;;;;;5112481;28;20047;-78
2022/09/19 07:42:13;;;;;;;1999.90;999.90;;;17.00;99.90;;;;;;5094569;28;20107;-77
2022/09/19 07:44:39;;;;;;;1999.90;999.90;;;16.10;99.90;;;;;;5112632;28;20070;-80
2022/09/19 07:49:50;;;;;;;1999.90;999.90;;;17.60;99.90;;;;;;5094898;28;20059;-77
2022/09/19 07:52:16;;;;;;;1999.90;999.90;;;19.00;99.90;;;;;;5093991;28;20435;-77
2022/09/19 07:54:41;;;;;;;1999.90;999.90;;;19.80;99.90;;;;;;5111745;28;20062;-77
2022/09/19 07:57:07;;;;;;;1999.90;999.90;;;19.50;99.90;;;;;;5111721;28;20104;-78
2022/09/19 07:59:33;;;;;;;1999.90;999.90;;;18.30;99.90;;;;;;5112314;28;20054;-75
2022/09/19 08:01:58;;;;;;;1999.90;999.90;;;18.20;99.90;;;;;;5094261;28;20044;-75
2022/09/19 08:04:24;;;;;;;1999.90;999.90;;;20.00;99.90;;;;;;5112914;28;20044;-78
2022/09/19 08:06:50;;;;;;;1999.90;999.90;;;18.90;99.90;;;;;;5111306;28;20055;-78
2022/09/19 08:09:15;;;;;;;1999.90;999.90;;;20.30;99.90;;;;;;5111561;28;20090;-76
2022/09/19 08:11:41;;;;;;;1999.90;999.90;;;19.40;99.90;;;;;;5112696;28;20039;-76
2022/09/19 08:14:07;;;;;;;1999.90;999.90;;;20.80;99.90;;;;;;5112141;28;20048;-76
2022/09/19 08:16:32;;;;;;;1999.90;999.90;;;21.10;99.90;;;;;;5111887;28;20058;-76
2022/09/19 08:18:58;;;;;;;1999.90;999.90;;;21.00;99.90;;;;;;5111850;28;20040;-77
2022/09/19 08:21:25;;;;;;;1999.90;999.90;;;19.50;99.90;;;;;;5111383;28;20039;-77
2022/09/19 08:23:51;;;;;;;1999.90;999.90;;;20.50;99.90;;;;;;5111220;28;20093;-88
2022/09/19 08:26:17;;;;;;;1999.90;999.90;;;19.00;99.90;;;;;;5112370;28;20051;-77
2022/09/19 08:28:42;;;;;;;1999.90;999.90;;;20.60;99.90;;;;;;5112110;28;20047;-79
2022/09/19 08:31:09;;;;;;;1999.90;999.90;;;20.40;99.90;;;;;;5115593;28;20077;-82
2022/09/19 08:33:35;;;;;;;1999.90;999.90;;;20.70;99.90;;;;;;5116727;28;20491;-79
2022/09/19 08:36:01;;;;;;;1999.90;999.90;;;19.80;99.90;;;;;;5098347;28;20059;-80
2022/09/19 08:38:27;;;;;;;1999.90;999.90;;;20.20;99.90;;;;;;5098603;28;20077;-79
2022/09/19 08:41:33;;;;;;;1999.90;999.90;;;19.90;99.90;;;;;;5116249;28;20066;-82
2022/09/19 08:44:27;;;;;;;1999.90;999.90;;;21.00;99.90;;;;;;5098479;28;20048;-80
2022/09/19 08:46:55;;;;;;;1999.90;999.90;;;22.90;99.90;;;;;;5098401;28;20100;-92
2022/09/19 08:49:45;;;;;;;1999.90;999.90;;;22.70;99.90;;;;;;5116661;28;20050;-80
2022/09/19 08:52:25;;;;;;;1999.90;999.90;;;25.20;99.90;;;;;;5115317;28;20611;-82
2022/09/19 08:54:53;;;;;;;1999.90;999.90;;;25.50;99.90;;;;;;5081874;28;20059;-83
2022/09/19 08:57:36;;;;;;;1999.90;999.90;;;23.90;99.90;;;;;;5098673;28;20047;-82
2022/09/19 09:00:21;;;;;;;1999.90;999.90;;;24.30;99.90;;;;;;5115328;28;20134;-83
2022/09/19 09:02:58;;;;;;;1999.90;999.90;;;24.30;99.90;;;;;;5116208;28;20039;-86
2022/09/19 09:05:44;;;;;;;1999.90;999.90;;;25.30;99.90;;;;;;5116168;28;20047;-82
2022/09/19 09:08:25;;;;;;;1999.90;999.90;;;25.00;99.90;;;;;;5115256;28;20043;-91
2022/09/19 09:11:10;;;;;;;1999.90;999.90;;;26.50;99.90;;;;;;5115998;28;20123;-83
2022/09/19 09:14:00;;;;;;;1999.90;999.90;;;26.40;99.90;;;;;;5115714;28;20052;-82
2022/09/19 09:16:35;;;;;;;1999.90;999.90;;;24.80;99.90;;;;;;5115816;28;20074;-83
2022/09/19 09:19:17;;;;;;;1999.90;999.90;;;25.40;99.90;;;;;;5097408;28;20079;-83
2022/09/19 09:22:06;;;;;;;1999.90;999.90;;;26.40;99.90;;;;;;5097469;28;20442;-84
2022/09/19 09:24:37;;;;;;;1999.90;999.90;;;26.00;99.90;;;;;;5081239;28;20043;-83
2022/09/19 09:27:20;;;;;;;1709.68;975.03;;;25.20;99.90;;;;;;5115818;28;20043;-84
2022/09/19 09:29:53;;;;;;;1999.90;999.90;;;23.90;99.90;;;;;;5115356;28;20044;-83
2022/09/19 09:35:54;;;;;;;1999.90;999.90;;;23.50;99.90;;;;;;5114516;28;20124;-87
2022/09/19 09:38:30;;;;;;;1999.90;999.90;;;20.50;99.90;;;;;;5114569;28;20462;-84
2022/09/19 09:44:13;;;;;;;1999.90;999.90;;;20.20;99.90;;;;;;5097626;28;20059;-84
2022/09/19 09:46:53;;;;;;;1999.90;999.90;;;21.50;99.90;;;;;;5115878;28;20094;-84
2022/09/19 09:49:27;;;;;;;1999.90;999.90;;;22.30;99.90;;;;;;5096515;28;20555;-84
2022/09/19 09:52:13;;;;;;;1999.90;999.90;;;23.70;99.90;;;;;;5116499;28;20092;-89
2022/09/19 09:57:53;;;;;;;1999.90;945.00;;;25.00;99.90;;;;;;5098463;28;20066;-85
2022/09/19 10:03:36;;;;;;;1662.13;933.55;;;24.10;99.90;;;;;;5097725;28;20399;-83
2022/09/19 10:06:24;;;;;;;1999.90;999.90;;;22.50;99.90;;;;;;5114896;28;20522;-84
2022/09/19 10:09:04;;;;;;;1814.83;872.13;;;21.70;99.90;;;;;;5115318;28;20043;-85
2022/09/19 10:11:46;;;;;;;1999.90;999.90;;;21.40;99.90;;;;;;5115315;28;20036;-84
2022/09/19 10:14:21;;;;;;;1999.90;999.90;;;21.90;99.90;;;;;;5096873;28;20052;-84
2022/09/19 10:16:52;;;;;;;1999.90;999.90;;;21.40;99.90;;;;;;5115018;28;20189;-84
2022/09/19 10:19:26;;;;;;;1999.90;999.90;;;21.30;99.90;;;;;;5096979;28;20381;-84
2022/09/19 10:21:55;;;;;;;1999.90;999.90;;;20.90;99.90;;;;;;5114306;28;20119;-89
2022/09/19 10:24:44;;;;;;;1999.90;999.90;;;20.10;99.90;;;;;;5096460;28;20092;-85
2022/09/19 10:27:23;;;;;;;1999.90;999.90;;;20.10;99.90;;;;;;5096634;28;20058;-85
2022/09/19 10:30:01;;;;;;;1999.90;999.90;;;21.10;99.90;;;;;;5096904;28;20043;-86
2022/09/19 10:32:37;;;;;;;1999.90;806.33;;;20.90;99.90;;;;;;5096600;28;20357;-86
2022/09/19 10:35:28;;;;;;;1999.90;550.75;;;22.30;99.90;;;;;;5096069;28;20553;-85
2022/09/19 10:37:59;;;;;;;1999.90;999.90;;;22.90;99.90;;;;;;5096469;28;20480;-86
2022/09/19 10:40:25;;;;;;;1999.90;870.15;;;23.70;99.90;;;;;;5114207;28;20052;-87
2022/09/19 10:42:54;;;;;;;1999.90;999.90;;;24.10;99.90;;;;;;5096163;28;20503;-86
2022/09/19 10:45:29;;;;;;;1999.90;999.90;;;24.40;99.90;;;;;;5096003;28;20103;-84
2022/09/19 10:48:02;;;;;;;1999.90;999.90;;;23.60;99.90;;;;;;5114288;28;20044;-85
2022/09/19 10:50:29;;;;;;;1999.90;979.58;;;23.90;99.90;;;;;;5113997;28;20492;-85
2022/09/19 10:53:04;;;;;;;1999.90;676.93;;;24.10;99.90;;;;;;5113215;28;20048;-85
2022/09/19 10:55:35;;;;;;;1999.90;999.90;;;24.90;99.90;;;;;;5078807;28;20044;-85
2022/09/19 10:58:12;;;;;;;1883.22;905.45;;;25.00;99.90;;;;;;5095966;28;20047;-86
2022/09/19 11:01:01;;;;;;;1999.90;999.90;;;26.20;99.90;;;;;;5114071;28;20047;-86
2022/09/19 11:03:31;;;;;;;729.38;678.75;;;27.10;99.90;;;;;;5095360;28;20112;-86
2022/09/19 11:06:10;;;;;;;702.60;654.47;;;27.40;99.90;;;;;;5114230;28;20480;-86
2022/09/19 11:08:46;;;;;;;618.17;574.38;;;26.80;99.90;;;;;;5078784;28;20044;-86
2022/09/19 11:11:45;;;;;;;559.25;522.20;;;26.40;99.90;;;;;;5114082;28;20044;-86
2022/09/19 11:14:31;;;;;;;597.05;556.80;;;26.30;99.90;;;;;;5095932;28;20112;-87
2022/09/19 11:17:29;;;;;;;601.00;560.90;;;26.50;99.90;;;;;;5095367;28;20051;-87
2022/09/19 11:20:00;;;;;;;629.78;586.83;;;27.10;99.90;;;;;;5114233;28;20039;-87
2022/09/19 11:22:55;;;;;;;561.63;524.40;;;27.70;99.90;;;;;;5112995;28;20046;-86
2022/09/19 11:25:31;;;;;;;525.20;489.88;;;27.70;99.90;;;;;;5064494;28;20052;-86
2022/09/19 11:28:49;;;;;;;1999.90;992.88;;;26.80;99.90;;;;;;5113866;28;20043;-86
2022/09/19 11:31:45;;;;;;;1999.90;999.90;;;25.90;99.90;;;;;;5052170;28;20071;-83
2022/09/19 11:34:36;;;;;;;1999.90;999.90;;;25.30;99.90;;;;;;5078065;28;20425;-84
2022/09/19 11:37:41;;;;;;;1999.90;999.90;;;23.60;99.90;;;;;;5093689;28;20048;-88
2022/09/19 11:40:38;;;;;;;1999.90;999.90;;;21.20;99.90;;;;;;5112993;28;20056;-84
2022/09/19 11:43:34;;;;;;;1999.90;999.90;;;22.20;99.90;;;;;;5112679;28;20051;-83
2022/09/19 11:46:16;;;;;;;1999.90;999.90;;;21.40;99.90;;;;;;5114492;28;20513;-85
2022/09/19 11:48:54;;;;;;;;;;;21.50;99.90;;;;;;5095845;28;20488;-85
2022/09/19 11:51:49;;;;;;;1999.90;999.90;;;23.00;99.90;;;;;;5093990;28;19920;-86
2022/09/19 11:54:44;;;;;;;1999.90;999.90;;;23.70;99.90;;;;;;5112282;28;20055;-84
2022/09/19 11:57:39;;;;;;;1999.90;999.90;;;23.90;99.90;;;;;;5113016;28;20574;-83
2022/09/19 12:00:23;;;;;;;1999.90;999.90;;;21.90;99.90;;;;;;5113350;28;20054;-83
2022/09/19 12:02:58;;;;;;;1999.90;999.90;;;21.80;99.90;;;;;;5113026;28;20043;-83
2022/09/19 12:06:01;;;;;;;1999.90;999.90;;;21.90;99.90;;;;;;5096609;28;20047;-84
2022/09/19 12:08:59;;;;;;;1999.90;999.90;;;21.20;99.90;;;;;;5098141;28;20549;-84
2022/09/19 12:11:50;;;;;;;1999.90;999.90;;;21.20;99.90;;;;;;5072076;28;20101;-84
2022/09/19 12:14:41;;;;;;;1999.90;999.90;;;21.90;99.90;;;;;;5116946;28;20525;-83
2022/09/19 12:17:27;;;;;;;1999.90;999.90;;;20.20;99.90;;;;;;5117518;28;20320;-83
2022/09/19 12:20:01;;;;;;;1999.90;999.90;;;21.40;99.90;;;;;;5116772;28;20457;-83
2022/09/19 12:22:31;;;;;;;1999.90;999.90;;;19.60;99.90;;;;;;5099072;28;20525;-84
2022/09/19 12:25:08;;;;;;;1999.90;999.90;;;20.70;99.90;;;;;;5117459;28;20131;-83
2022/09/19 12:27:43;;;;;;;1999.90;999.90;;;19.60;99.90;;;;;;5099044;28;20040;-84
2022/09/19 12:30:18;;;;;;;1999.90;999.90;;;19.80;99.90;;;;;;5117589;28;20074;-83
2022/09/19 12:33:08;;;;;;;1999.90;999.90;;;20.10;99.90;;;;;;5117438;28;20043;-82
2022/09/19 12:35:39;;;;;;;1999.90;999.90;;;18.90;99.90;;;;;;5117225;28;20048;-82
2022/09/19 12:38:15;;;;;;;1999.90;999.90;;;19.40;99.90;;;;;;5116067;28;20524;-83
2022/09/19 12:40:53;;;;;;;1999.90;999.90;;;19.40;99.90;;;;;;5117272;28;20048;-82
2022/09/19 12:43:49;;;;;;;1999.90;999.90;;;19.10;99.90;;;;;;5117819;28;20048;-83
2022/09/19 12:46:35;;;;;;;1999.90;999.90;;;19.30;99.90;;;;;;5116659;28;20765;-82
2022/09/19 12:49:12;;;;;;;1999.90;999.90;;;18.90;99.90;;;;;;5117389;28;20047;-82
2022/09/19 12:52:00;;;;;;;1999.90;999.90;;;20.10;99.90;;;;;;5117264;28;20047;-83
2022/09/19 12:54:52;;;;;;;1999.90;999.90;;;19.00;99.90;;;;;;5116939;28;20115;-83
2022/09/19 12:57:36;;;;;;;1999.90;999.90;;;19.90;99.90;;;;;;5116527;28;20054;-93